sensor_id;sensor_type;location;lat;lon;timestamp;temperature;humidity
37242;DHT22;23135;51.078;12.108;2023-12-28T00:00:18;7.40;99.90
37242;DHT22;23135;51.078;12.108;2023-12-28T00:02:43;7.30;99.90
37242;DHT22;23135;51.078;12.108;2023-12-28T00:05:09;7.20;99.90
37242;DHT22;23135;51.078;12.108;2023-12-28T00:07:35;7.20;99.90
37242;DHT22;23135;51.078;12.108;2023-12-28T00:10:01;7.20;99.90
37242;DHT22;23135;51.078;12.108;2023-12-28T00:12:27;7.20;99.90
37242;DHT22;23135;51.078;12.108;2023-12-28T00:14:53;7.10;99.90
37242;DHT22;23135;51.078;12.108;2023-12-28T00:17:18;7.10;99.90
37242;DHT22;23135;51.078;12.108;2023-12-28T00:19:44;7.10;99.90
37242;DHT22;23135;51.078;12.108;2023-12-28T00:22:09;7.10;99.90
37242;DHT22;23135;51.078;12.108;2023-12-28T00:24:35;7.10;99.90
37242;DHT22;23135;51.078;12.108;2023-12-28T00:27:01;7.20;99.90
37242;DHT22;23135;51.078;12.108;2023-12-28T00:29:26;7.10;99.90
37242;DHT22;23135;51.078;12.108;2023-12-28T00:31:54;7.10;99.90
37242;DHT22;23135;51.078;12.108;2023-12-28T00:34:19;7.10;99.90
37242;DHT22;23135;51.078;12.108;2023-12-28T00:36:45;7.00;99.90
37242;DHT22;23135;51.078;12.108;2023-12-28T00:39:10;6.90;99.90
37242;DHT22;23135;51.078;12.108;2023-12-28T00:41:36;6.80;99.90
37242;DHT22;23135;51.078;12.108;2023-12-28T00:44:01;6.70;99.90
37242;DHT22;23135;51.078;12.108;2023-12-28T00:46:27;6.70;99.90
37242;DHT22;23135;51.078;12.108;2023-12-28T00:48:53;6.70;99.90
37242;DHT22;23135;51.078;12.108;2023-12-28T00:51:20;6.60;99.90
37242;DHT22;23135;51.078;12.108;2023-12-28T00:53:45;6.50;99.90
37242;DHT22;23135;51.078;12.108;2023-12-28T00:56:11;6.50;99.90
37242;DHT22;23135;51.078;12.108;2023-12-28T00:58:39;6.40;99.90
37242;DHT22;23135;51.078;12.108;2023-12-28T01:01:05;6.40;99.90
37242;DHT22;23135;51.078;12.108;2023-12-28T01:03:31;6.40;99.90
37242;DHT22;23135;51.078;12.108;2023-12-28T01:05:56;6.50;99.90
37242;DHT22;23135;51.078;12.108;2023-12-28T01:08:22;6.50;99.90
37242;DHT22;23135;51.078;12.108;2023-12-28T01:10:47;6.60;99.90
37242;DHT22;23135;51.078;12.108;2023-12-28T01:13:13;6.60;99.90
37242;DHT22;23135;51.078;12.108;2023-12-28T01:15:39;6.70;99.90
37242;DHT22;23135;51.078;12.108;2023-12-28T01:18:04;6.80;99.90
37242;DHT22;23135;51.078;12.108;2023-12-28T01:20:30;6.90;99.90
37242;DHT22;23135;51.078;12.108;2023-12-28T01:22:55;6.80;99.90
37242;DHT22;23135;51.078;12.108;2023-12-28T01:25:21;6.80;99.90
37242;DHT22;23135;51.078;12.108;2023-12-28T01:27:46;6.70;99.90
37242;DHT22;23135;51.078;12.108;2023-12-28T01:30:12;6.70;99.90
37242;DHT22;23135;51.078;12.108;2023-12-28T01:32:37;6.60;99.90
37242;DHT22;23135;51.078;12.108;2023-12-28T01:35:03;6.80;99.90
37242;DHT22;23135;51.078;12.108;2023-12-28T01:37:29;6.80;99.90
37242;DHT22;23135;51.078;12.108;2023-12-28T01:39:56;6.90;99.90
37242;DHT22;23135;51.078;12.108;2023-12-28T01:42:22;7.00;99.90
37242;DHT22;23135;51.078;12.108;2023-12-28T01:44:47;7.10;99.90
37242;DHT22;23135;51.078;12.108;2023-12-28T01:47:13;7.20;99.90
37242;DHT22;23135;51.078;12.108;2023-12-28T01:49:39;7.30;99.90
37242;DHT22;23135;51.078;12.108;2023-12-28T01:52:06;7.30;99.90
37242;DHT22;23135;51.078;12.108;2023-12-28T01:54:32;7.30;99.90
37242;DHT22;23135;51.078;12.108;2023-12-28T01:57:00;7.20;99.90
37242;DHT22;23135;51.078;12.108;2023-12-28T01:59:26;7.10;99.90
37242;DHT22;23135;51.078;12.108;2023-12-28T02:01:52;7.00;99.90
37242;DHT22;23135;51.078;12.108;2023-12-28T02:04:18;6.90;99.90
37242;DHT22;23135;51.078;12.108;2023-12-28T02:06:47;6.90;99.90
37242;DHT22;23135;51.078;12.108;2023-12-28T02:09:14;6.90;99.90
37242;DHT22;23135;51.078;12.108;2023-12-28T02:11:40;7.10;99.90
37242;DHT22;23135;51.078;12.108;2023-12-28T02:14:05;7.20;99.90
37242;DHT22;23135;51.078;12.108;2023-12-28T02:16:40;7.30;99.90
37242;DHT22;23135;51.078;12.108;2023-12-28T02:19:39;7.30;99.90
37242;DHT22;23135;51.078;12.108;2023-12-28T02:22:07;7.30;99.90
37242;DHT22;23135;51.078;12.108;2023-12-28T02:27:29;7.30;99.90
37242;DHT22;23135;51.078;12.108;2023-12-28T02:29:55;7.40;99.90
37242;DHT22;23135;51.078;12.108;2023-12-28T02:32:39;7.40;99.90
37242;DHT22;23135;51.078;12.108;2023-12-28T02:35:29;7.60;99.90
37242;DHT22;23135;51.078;12.108;2023-12-28T02:37:58;7.50;99.90
37242;DHT22;23135;51.078;12.108;2023-12-28T02:40:24;7.60;99.90
37242;DHT22;23135;51.078;12.108;2023-12-28T02:42:51;7.50;99.90
37242;DHT22;23135;51.078;12.108;2023-12-28T02:45:17;7.50;99.90
37242;DHT22;23135;51.078;12.108;2023-12-28T02:47:43;7.50;99.90
37242;DHT22;23135;51.078;12.108;2023-12-28T02:50:09;7.40;99.90
37242;DHT22;23135;51.078;12.108;2023-12-28T02:52:35;7.40;99.90
37242;DHT22;23135;51.078;12.108;2023-12-28T02:55:01;7.40;99.90
37242;DHT22;23135;51.078;12.108;2023-12-28T02:57:26;7.40;99.90
37242;DHT22;23135;51.078;12.108;2023-12-28T02:59:52;7.50;99.90
37242;DHT22;23135;51.078;12.108;2023-12-28T03:02:17;7.50;99.90
37242;DHT22;23135;51.078;12.108;2023-12-28T03:04:43;7.50;99.90
37242;DHT22;23135;51.078;12.108;2023-12-28T03:07:09;7.70;99.90
37242;DHT22;23135;51.078;12.108;2023-12-28T03:09:34;7.80;99.90
37242;DHT22;23135;51.078;12.108;2023-12-28T03:12:00;8.10;99.90
37242;DHT22;23135;51.078;12.108;2023-12-28T03:14:26;8.10;99.90
37242;DHT22;23135;51.078;12.108;2023-12-28T03:16:51;8.40;99.90
37242;DHT22;23135;51.078;12.108;2023-12-28T03:19:17;8.50;99.90
37242;DHT22;23135;51.078;12.108;2023-12-28T03:21:43;8.70;99.90
37242;DHT22;23135;51.078;12.108;2023-12-28T03:24:08;8.80;99.90
37242;DHT22;23135;51.078;12.108;2023-12-28T03:26:40;8.90;99.90
37242;DHT22;23135;51.078;12.108;2023-12-28T03:29:07;8.90;99.90
37242;DHT22;23135;51.078;12.108;2023-12-28T03:31:33;9.00;99.90
37242;DHT22;23135;51.078;12.108;2023-12-28T03:33:59;9.10;99.90
37242;DHT22;23135;51.078;12.108;2023-12-28T03:36:24;9.20;99.90
37242;DHT22;23135;51.078;12.108;2023-12-28T03:38:50;9.20;99.90
37242;DHT22;23135;51.078;12.108;2023-12-28T03:41:19;9.10;99.90
37242;DHT22;23135;51.078;12.108;2023-12-28T03:43:45;9.20;99.90
37242;DHT22;23135;51.078;12.108;2023-12-28T03:46:11;9.30;99.90
37242;DHT22;23135;51.078;12.108;2023-12-28T03:48:37;9.30;99.90
37242;DHT22;23135;51.078;12.108;2023-12-28T03:51:04;9.20;99.90
37242;DHT22;23135;51.078;12.108;2023-12-28T03:53:30;9.30;99.90
37242;DHT22;23135;51.078;12.108;2023-12-28T03:55:57;9.30;99.90
37242;DHT22;23135;51.078;12.108;2023-12-28T03:58:23;9.30;99.90
37242;DHT22;23135;51.078;12.108;2023-12-28T04:00:48;9.30;99.90
37242;DHT22;23135;51.078;12.108;2023-12-28T04:03:14;9.30;99.90
37242;DHT22;23135;51.078;12.108;2023-12-28T04:05:40;9.30;99.90
37242;DHT22;23135;51.078;12.108;2023-12-28T04:08:05;9.40;99.90
37242;DHT22;23135;51.078;12.108;2023-12-28T04:10:32;9.40;99.90
37242;DHT22;23135;51.078;12.108;2023-12-28T04:12:58;9.40;99.90
37242;DHT22;23135;51.078;12.108;2023-12-28T04:15:25;9.40;99.90
37242;DHT22;23135;51.078;12.108;2023-12-28T04:17:51;9.40;99.90
37242;DHT22;23135;51.078;12.108;2023-12-28T04:20:17;9.40;99.90
37242;DHT22;23135;51.078;12.108;2023-12-28T04:22:42;9.40;99.90
37242;DHT22;23135;51.078;12.108;2023-12-28T04:25:09;9.40;99.90
37242;DHT22;23135;51.078;12.108;2023-12-28T04:27:35;9.40;99.90
37242;DHT22;23135;51.078;12.108;2023-12-28T04:30:00;9.40;99.90
37242;DHT22;23135;51.078;12.108;2023-12-28T04:32:26;9.30;99.90
37242;DHT22;23135;51.078;12.108;2023-12-28T04:34:52;9.30;99.90
37242;DHT22;23135;51.078;12.108;2023-12-28T04:37:19;9.40;99.90
37242;DHT22;23135;51.078;12.108;2023-12-28T04:39:45;9.30;99.90
37242;DHT22;23135;51.078;12.108;2023-12-28T04:42:11;9.30;99.90
37242;DHT22;23135;51.078;12.108;2023-12-28T04:44:39;9.30;99.90
37242;DHT22;23135;51.078;12.108;2023-12-28T04:47:05;9.30;99.90
37242;DHT22;23135;51.078;12.108;2023-12-28T04:49:31;9.20;99.90
37242;DHT22;23135;51.078;12.108;2023-12-28T04:51:56;9.20;99.90
37242;DHT22;23135;51.078;12.108;2023-12-28T04:54:22;9.30;99.90
37242;DHT22;23135;51.078;12.108;2023-12-28T04:56:48;9.30;99.90
37242;DHT22;23135;51.078;12.108;2023-12-28T04:59:14;9.20;99.90
37242;DHT22;23135;51.078;12.108;2023-12-28T05:01:43;9.20;99.90
37242;DHT22;23135;51.078;12.108;2023-12-28T05:04:09;9.10;99.90
37242;DHT22;23135;51.078;12.108;2023-12-28T05:06:35;9.10;99.90
37242;DHT22;23135;51.078;12.108;2023-12-28T05:09:01;9.10;99.90
37242;DHT22;23135;51.078;12.108;2023-12-28T05:11:26;9.00;99.90
37242;DHT22;23135;51.078;12.108;2023-12-28T05:13:52;9.00;99.90
37242;DHT22;23135;51.078;12.108;2023-12-28T05:16:18;9.00;99.90
37242;DHT22;23135;51.078;12.108;2023-12-28T05:18:43;9.00;99.90
37242;DHT22;23135;51.078;12.108;2023-12-28T05:21:09;8.90;99.90
37242;DHT22;23135;51.078;12.108;2023-12-28T05:23:34;9.00;99.90
37242;DHT22;23135;51.078;12.108;2023-12-28T05:26:00;9.00;99.90
37242;DHT22;23135;51.078;12.108;2023-12-28T05:28:25;8.90;99.90
37242;DHT22;23135;51.078;12.108;2023-12-28T05:30:51;8.90;99.90
37242;DHT22;23135;51.078;12.108;2023-12-28T05:33:16;8.90;99.90
37242;DHT22;23135;51.078;12.108;2023-12-28T05:35:42;8.90;99.90
37242;DHT22;23135;51.078;12.108;2023-12-28T05:38:08;8.90;99.90
37242;DHT22;23135;51.078;12.108;2023-12-28T05:40:33;8.90;99.90
37242;DHT22;23135;51.078;12.108;2023-12-28T05:42:59;8.90;99.90
37242;DHT22;23135;51.078;12.108;2023-12-28T05:45:24;8.80;99.90
37242;DHT22;23135;51.078;12.108;2023-12-28T05:47:50;8.80;99.90
37242;DHT22;23135;51.078;12.108;2023-12-28T05:50:15;8.80;99.90
37242;DHT22;23135;51.078;12.108;2023-12-28T05:52:41;8.80;99.90
37242;DHT22;23135;51.078;12.108;2023-12-28T05:55:06;8.90;99.90
37242;DHT22;23135;51.078;12.108;2023-12-28T05:57:32;9.00;99.90
37242;DHT22;23135;51.078;12.108;2023-12-28T05:59:58;8.90;99.90
37242;DHT22;23135;51.078;12.108;2023-12-28T06:02:23;9.00;99.90
37242;DHT22;23135;51.078;12.108;2023-12-28T06:04:49;8.90;99.90
37242;DHT22;23135;51.078;12.108;2023-12-28T06:07:15;8.90;99.90
37242;DHT22;23135;51.078;12.108;2023-12-28T06:09:40;8.90;99.90
37242;DHT22;23135;51.078;12.108;2023-12-28T06:12:06;8.90;99.90
37242;DHT22;23135;51.078;12.108;2023-12-28T06:14:32;9.00;99.90
37242;DHT22;23135;51.078;12.108;2023-12-28T06:16:57;8.90;99.90
37242;DHT22;23135;51.078;12.108;2023-12-28T06:19:23;9.00;99.90
37242;DHT22;23135;51.078;12.108;2023-12-28T06:21:49;9.00;99.90
37242;DHT22;23135;51.078;12.108;2023-12-28T06:24:14;9.00;99.90
37242;DHT22;23135;51.078;12.108;2023-12-28T06:26:41;8.90;99.90
37242;DHT22;23135;51.078;12.108;2023-12-28T06:29:07;8.90;99.90
37242;DHT22;23135;51.078;12.108;2023-12-28T06:31:33;8.90;99.90
37242;DHT22;23135;51.078;12.108;2023-12-28T06:34:04;8.90;99.90
37242;DHT22;23135;51.078;12.108;2023-12-28T06:36:31;9.00;99.90
37242;DHT22;23135;51.078;12.108;2023-12-28T06:38:57;9.00;99.90
37242;DHT22;23135;51.078;12.108;2023-12-28T06:41:23;9.00;99.90
37242;DHT22;23135;51.078;12.108;2023-12-28T06:43:49;9.00;99.90
37242;DHT22;23135;51.078;12.108;2023-12-28T06:46:15;9.00;99.90
37242;DHT22;23135;51.078;12.108;2023-12-28T06:48:40;9.10;99.90
37242;DHT22;23135;51.078;12.108;2023-12-28T06:51:06;9.00;99.90
37242;DHT22;23135;51.078;12.108;2023-12-28T06:53:32;9.00;99.90
37242;DHT22;23135;51.078;12.108;2023-12-28T06:55:58;9.00;99.90
37242;DHT22;23135;51.078;12.108;2023-12-28T06:58:23;9.00;99.90
37242;DHT22;23135;51.078;12.108;2023-12-28T07:00:49;9.00;99.90
37242;DHT22;23135;51.078;12.108;2023-12-28T07:03:15;9.10;99.90
37242;DHT22;23135;51.078;12.108;2023-12-28T07:05:40;9.00;99.90
37242;DHT22;23135;51.078;12.108;2023-12-28T07:08:06;8.90;99.90
37242;DHT22;23135;51.078;12.108;2023-12-28T07:10:31;8.90;99.90
37242;DHT22;23135;51.078;12.108;2023-12-28T07:12:57;8.90;99.90
37242;DHT22;23135;51.078;12.108;2023-12-28T07:15:23;8.70;99.90
37242;DHT22;23135;51.078;12.108;2023-12-28T07:17:48;8.70;99.90
37242;DHT22;23135;51.078;12.108;2023-12-28T07:20:14;8.60;99.90
37242;DHT22;23135;51.078;12.108;2023-12-28T07:22:40;8.50;99.90
37242;DHT22;23135;51.078;12.108;2023-12-28T07:25:06;8.50;99.90
37242;DHT22;23135;51.078;12.108;2023-12-28T07:27:32;8.50;99.90
37242;DHT22;23135;51.078;12.108;2023-12-28T07:29:58;8.50;99.90
37242;DHT22;23135;51.078;12.108;2023-12-28T07:32:24;8.40;99.90
37242;DHT22;23135;51.078;12.108;2023-12-28T07:34:52;8.30;99.90
37242;DHT22;23135;51.078;12.108;2023-12-28T07:37:18;8.30;99.90
37242;DHT22;23135;51.078;12.108;2023-12-28T07:39:44;8.20;99.90
37242;DHT22;23135;51.078;12.108;2023-12-28T07:42:09;8.20;99.90
37242;DHT22;23135;51.078;12.108;2023-12-28T07:44:36;8.20;99.90
37242;DHT22;23135;51.078;12.108;2023-12-28T07:47:02;8.10;99.90
37242;DHT22;23135;51.078;12.108;2023-12-28T07:49:30;8.10;99.90
37242;DHT22;23135;51.078;12.108;2023-12-28T07:51:56;8.10;99.90
37242;DHT22;23135;51.078;12.108;2023-12-28T07:54:22;8.10;99.90
37242;DHT22;23135;51.078;12.108;2023-12-28T07:56:47;8.10;99.90
37242;DHT22;23135;51.078;12.108;2023-12-28T07:59:13;8.00;99.90
37242;DHT22;23135;51.078;12.108;2023-12-28T08:01:38;8.00;99.90
37242;DHT22;23135;51.078;12.108;2023-12-28T08:04:04;7.90;99.90
37242;DHT22;23135;51.078;12.108;2023-12-28T08:06:30;7.80;99.90
37242;DHT22;23135;51.078;12.108;2023-12-28T08:08:59;7.80;99.90
37242;DHT22;23135;51.078;12.108;2023-12-28T08:11:27;7.90;99.90
37242;DHT22;23135;51.078;12.108;2023-12-28T08:13:52;7.90;99.90
37242;DHT22;23135;51.078;12.108;2023-12-28T08:16:18;7.90;99.90
37242;DHT22;23135;51.078;12.108;2023-12-28T08:18:43;7.90;99.90
37242;DHT22;23135;51.078;12.108;2023-12-28T08:21:09;8.00;99.90
37242;DHT22;23135;51.078;12.108;2023-12-28T08:23:34;7.90;99.90
37242;DHT22;23135;51.078;12.108;2023-12-28T08:26:00;7.90;99.90
37242;DHT22;23135;51.078;12.108;2023-12-28T08:28:26;7.90;99.90
37242;DHT22;23135;51.078;12.108;2023-12-28T08:30:51;7.90;99.90
37242;DHT22;23135;51.078;12.108;2023-12-28T08:33:17;7.90;99.90
37242;DHT22;23135;51.078;12.108;2023-12-28T08:35:42;7.80;99.90
37242;DHT22;23135;51.078;12.108;2023-12-28T08:38:08;7.80;99.90
37242;DHT22;23135;51.078;12.108;2023-12-28T08:40:34;7.90;99.90
37242;DHT22;23135;51.078;12.108;2023-12-28T08:43:00;7.90;99.90
37242;DHT22;23135;51.078;12.108;2023-12-28T08:45:25;7.90;99.90
37242;DHT22;23135;51.078;12.108;2023-12-28T08:47:51;7.80;99.90
37242;DHT22;23135;51.078;12.108;2023-12-28T08:50:16;7.80;99.90
37242;DHT22;23135;51.078;12.108;2023-12-28T08:52:42;7.90;99.90
37242;DHT22;23135;51.078;12.108;2023-12-28T08:55:07;7.80;99.90
37242;DHT22;23135;51.078;12.108;2023-12-28T08:57:33;7.80;99.90
37242;DHT22;23135;51.078;12.108;2023-12-28T08:59:59;7.90;99.90
37242;DHT22;23135;51.078;12.108;2023-12-28T09:02:28;7.80;99.90
37242;DHT22;23135;51.078;12.108;2023-12-28T09:04:53;7.80;99.90
37242;DHT22;23135;51.078;12.108;2023-12-28T09:07:19;7.80;99.90
37242;DHT22;23135;51.078;12.108;2023-12-28T09:09:45;7.70;99.90
37242;DHT22;23135;51.078;12.108;2023-12-28T09:12:11;7.70;99.90
37242;DHT22;23135;51.078;12.108;2023-12-28T09:14:37;7.80;99.90
37242;DHT22;23135;51.078;12.108;2023-12-28T09:17:02;7.90;99.90
37242;DHT22;23135;51.078;12.108;2023-12-28T09:19:28;8.00;99.90
37242;DHT22;23135;51.078;12.108;2023-12-28T09:21:53;8.20;99.90
37242;DHT22;23135;51.078;12.108;2023-12-28T09:24:19;8.20;99.90
37242;DHT22;23135;51.078;12.108;2023-12-28T09:26:45;8.20;99.90
37242;DHT22;23135;51.078;12.108;2023-12-28T09:29:10;8.20;99.90
37242;DHT22;23135;51.078;12.108;2023-12-28T09:31:37;8.20;99.90
37242;DHT22;23135;51.078;12.108;2023-12-28T09:34:03;8.20;99.90
37242;DHT22;23135;51.078;12.108;2023-12-28T09:36:30;8.30;99.90
37242;DHT22;23135;51.078;12.108;2023-12-28T09:38:56;8.30;99.90
37242;DHT22;23135;51.078;12.108;2023-12-28T09:41:26;8.40;99.90
37242;DHT22;23135;51.078;12.108;2023-12-28T09:44:05;8.50;99.90
37242;DHT22;23135;51.078;12.108;2023-12-28T09:46:32;8.50;99.90
37242;DHT22;23135;51.078;12.108;2023-12-28T09:48:58;8.50;99.90
37242;DHT22;23135;51.078;12.108;2023-12-28T09:51:27;8.60;99.90
37242;DHT22;23135;51.078;12.108;2023-12-28T09:53:53;8.60;99.90
37242;DHT22;23135;51.078;12.108;2023-12-28T09:56:19;8.60;99.90
37242;DHT22;23135;51.078;12.108;2023-12-28T09:58:46;8.70;99.90
37242;DHT22;23135;51.078;12.108;2023-12-28T10:01:14;8.70;99.90
37242;DHT22;23135;51.078;12.108;2023-12-28T10:03:40;8.60;99.90
37242;DHT22;23135;51.078;12.108;2023-12-28T10:06:05;8.70;99.90
37242;DHT22;23135;51.078;12.108;2023-12-28T10:08:31;8.60;99.90
37242;DHT22;23135;51.078;12.108;2023-12-28T10:10:56;8.70;99.90
37242;DHT22;23135;51.078;12.108;2023-12-28T10:13:25;8.80;99.90
37242;DHT22;23135;51.078;12.108;2023-12-28T10:15:50;8.80;99.90
37242;DHT22;23135;51.078;12.108;2023-12-28T10:18:19;8.80;99.90
37242;DHT22;23135;51.078;12.108;2023-12-28T10:20:50;8.80;99.90
37242;DHT22;23135;51.078;12.108;2023-12-28T10:23:16;8.90;99.90
37242;DHT22;23135;51.078;12.108;2023-12-28T10:25:42;8.90;99.90
37242;DHT22;23135;51.078;12.108;2023-12-28T10:28:10;8.90;99.90
37242;DHT22;23135;51.078;12.108;2023-12-28T10:30:37;8.90;99.90
37242;DHT22;23135;51.078;12.108;2023-12-28T10:33:05;9.00;99.90
37242;DHT22;23135;51.078;12.108;2023-12-28T10:35:31;9.00;99.90
37242;DHT22;23135;51.078;12.108;2023-12-28T10:38:00;9.00;99.90
37242;DHT22;23135;51.078;12.108;2023-12-28T10:40:26;9.00;99.90
37242;DHT22;23135;51.078;12.108;2023-12-28T10:42:57;9.00;99.90
37242;DHT22;23135;51.078;12.108;2023-12-28T10:45:25;9.10;99.90
37242;DHT22;23135;51.078;12.108;2023-12-28T10:48:14;9.00;99.90
37242;DHT22;23135;51.078;12.108;2023-12-28T10:50:49;9.10;99.90
37242;DHT22;23135;51.078;12.108;2023-12-28T10:56:28;9.20;99.90
37242;DHT22;23135;51.078;12.108;2023-12-28T11:01:55;9.40;99.90
37242;DHT22;23135;51.078;12.108;2023-12-28T11:04:40;9.50;99.90
37242;DHT22;23135;51.078;12.108;2023-12-28T11:07:09;9.60;99.90
37242;DHT22;23135;51.078;12.108;2023-12-28T11:09:35;9.80;99.90
37242;DHT22;23135;51.078;12.108;2023-12-28T11:12:03;10.00;99.90
37242;DHT22;23135;51.078;12.108;2023-12-28T11:14:33;10.10;99.90
37242;DHT22;23135;51.078;12.108;2023-12-28T11:16:59;10.20;99.90
37242;DHT22;23135;51.078;12.108;2023-12-28T11:19:27;10.30;99.90
37242;DHT22;23135;51.078;12.108;2023-12-28T11:21:53;10.40;99.90
37242;DHT22;23135;51.078;12.108;2023-12-28T11:24:22;10.40;99.90
37242;DHT22;23135;51.078;12.108;2023-12-28T11:26:54;10.30;99.90
37242;DHT22;23135;51.078;12.108;2023-12-28T11:29:21;10.30;99.90
37242;DHT22;23135;51.078;12.108;2023-12-28T11:31:54;10.20;99.90
37242;DHT22;23135;51.078;12.108;2023-12-28T11:34:25;10.20;99.90
37242;DHT22;23135;51.078;12.108;2023-12-28T11:36:53;10.20;99.90
37242;DHT22;23135;51.078;12.108;2023-12-28T11:39:31;10.30;99.90
37242;DHT22;23135;51.078;12.108;2023-12-28T11:42:08;10.30;99.90
37242;DHT22;23135;51.078;12.108;2023-12-28T11:44:41;10.40;99.90
37242;DHT22;23135;51.078;12.108;2023-12-28T11:47:17;10.40;99.90
37242;DHT22;23135;51.078;12.108;2023-12-28T11:49:46;10.30;99.90
37242;DHT22;23135;51.078;12.108;2023-12-28T11:52:25;10.30;99.90
37242;DHT22;23135;51.078;12.108;2023-12-28T11:54:52;10.40;99.90
37242;DHT22;23135;51.078;12.108;2023-12-28T11:57:18;10.40;99.90
37242;DHT22;23135;51.078;12.108;2023-12-28T11:59:43;10.50;99.90
37242;DHT22;23135;51.078;12.108;2023-12-28T12:02:09;10.70;99.90
37242;DHT22;23135;51.078;12.108;2023-12-28T12:04:36;10.80;99.90
37242;DHT22;23135;51.078;12.108;2023-12-28T12:07:02;10.90;99.90
37242;DHT22;23135;51.078;12.108;2023-12-28T12:09:29;11.20;99.90
37242;DHT22;23135;51.078;12.108;2023-12-28T12:11:57;11.30;99.90
37242;DHT22;23135;51.078;12.108;2023-12-28T12:14:23;11.40;99.90
37242;DHT22;23135;51.078;12.108;2023-12-28T12:16:49;11.50;99.90
37242;DHT22;23135;51.078;12.108;2023-12-28T12:19:15;11.80;99.90
37242;DHT22;23135;51.078;12.108;2023-12-28T12:21:41;12.00;99.90
37242;DHT22;23135;51.078;12.108;2023-12-28T12:24:06;12.00;99.90
37242;DHT22;23135;51.078;12.108;2023-12-28T12:26:32;12.10;99.90
37242;DHT22;23135;51.078;12.108;2023-12-28T12:28:58;12.30;99.90
37242;DHT22;23135;51.078;12.108;2023-12-28T12:31:25;12.40;99.90
37242;DHT22;23135;51.078;12.108;2023-12-28T12:33:51;12.50;99.90
37242;DHT22;23135;51.078;12.108;2023-12-28T12:36:17;12.50;99.90
37242;DHT22;23135;51.078;12.108;2023-12-28T12:38:43;12.60;99.90
37242;DHT22;23135;51.078;12.108;2023-12-28T12:41:10;12.70;99.90
37242;DHT22;23135;51.078;12.108;2023-12-28T12:43:37;12.80;99.90
37242;DHT22;23135;51.078;12.108;2023-12-28T12:46:04;12.70;99.90
37242;DHT22;23135;51.078;12.108;2023-12-28T12:48:29;12.70;99.90
37242;DHT22;23135;51.078;12.108;2023-12-28T12:50:55;12.70;99.90
37242;DHT22;23135;51.078;12.108;2023-12-28T12:53:21;12.80;99.90
37242;DHT22;23135;51.078;12.108;2023-12-28T12:55:47;12.60;99.90
37242;DHT22;23135;51.078;12.108;2023-12-28T12:58:13;12.80;99.90
37242;DHT22;23135;51.078;12.108;2023-12-28T13:00:42;12.60;99.90
37242;DHT22;23135;51.078;12.108;2023-12-28T13:03:10;12.50;99.90
37242;DHT22;23135;51.078;12.108;2023-12-28T13:05:36;12.60;99.90
37242;DHT22;23135;51.078;12.108;2023-12-28T13:08:03;12.80;99.90
37242;DHT22;23135;51.078;12.108;2023-12-28T13:10:30;12.90;99.90
37242;DHT22;23135;51.078;12.108;2023-12-28T13:12:56;12.90;99.90
37242;DHT22;23135;51.078;12.108;2023-12-28T13:15:21;13.10;99.90
37242;DHT22;23135;51.078;12.108;2023-12-28T13:17:47;13.10;99.90
37242;DHT22;23135;51.078;12.108;2023-12-28T13:20:12;13.00;99.90
37242;DHT22;23135;51.078;12.108;2023-12-28T13:22:39;13.20;99.90
37242;DHT22;23135;51.078;12.108;2023-12-28T13:25:05;13.10;99.90
37242;DHT22;23135;51.078;12.108;2023-12-28T13:27:30;13.50;99.90
37242;DHT22;23135;51.078;12.108;2023-12-28T13:29:57;13.70;99.90
37242;DHT22;23135;51.078;12.108;2023-12-28T13:32:23;13.50;99.90
37242;DHT22;23135;51.078;12.108;2023-12-28T13:34:49;13.30;99.90
37242;DHT22;23135;51.078;12.108;2023-12-28T13:37:16;13.60;99.90
37242;DHT22;23135;51.078;12.108;2023-12-28T13:39:42;13.40;99.90
37242;DHT22;23135;51.078;12.108;2023-12-28T13:42:07;13.30;99.90
37242;DHT22;23135;51.078;12.108;2023-12-28T13:44:34;13.10;99.90
37242;DHT22;23135;51.078;12.108;2023-12-28T13:47:01;13.00;99.90
37242;DHT22;23135;51.078;12.108;2023-12-28T13:49:26;12.70;99.90
37242;DHT22;23135;51.078;12.108;2023-12-28T13:51:52;12.70;99.90
37242;DHT22;23135;51.078;12.108;2023-12-28T13:54:18;12.50;99.90
37242;DHT22;23135;51.078;12.108;2023-12-28T13:56:47;12.70;99.90
37242;DHT22;23135;51.078;12.108;2023-12-28T13:59:13;12.70;99.90
37242;DHT22;23135;51.078;12.108;2023-12-28T14:01:39;12.70;99.90
37242;DHT22;23135;51.078;12.108;2023-12-28T14:04:05;12.90;99.90
37242;DHT22;23135;51.078;12.108;2023-12-28T14:06:31;12.70;99.90
37242;DHT22;23135;51.078;12.108;2023-12-28T14:08:57;12.50;99.90
37242;DHT22;23135;51.078;12.108;2023-12-28T14:11:23;12.20;99.90
37242;DHT22;23135;51.078;12.108;2023-12-28T14:13:49;12.10;99.90
37242;DHT22;23135;51.078;12.108;2023-12-28T14:16:14;12.00;99.90
37242;DHT22;23135;51.078;12.108;2023-12-28T14:18:40;12.10;99.90
37242;DHT22;23135;51.078;12.108;2023-12-28T14:21:10;12.00;99.90
37242;DHT22;23135;51.078;12.108;2023-12-28T14:23:38;11.90;99.90
37242;DHT22;23135;51.078;12.108;2023-12-28T14:26:12;11.70;99.90
37242;DHT22;23135;51.078;12.108;2023-12-28T14:28:42;11.50;99.90
37242;DHT22;23135;51.078;12.108;2023-12-28T14:31:09;11.40;99.90
37242;DHT22;23135;51.078;12.108;2023-12-28T14:33:35;11.10;99.90
37242;DHT22;23135;51.078;12.108;2023-12-28T14:36:01;10.70;99.90
37242;DHT22;23135;51.078;12.108;2023-12-28T14:38:28;10.40;99.90
37242;DHT22;23135;51.078;12.108;2023-12-28T14:40:53;10.20;99.90
37242;DHT22;23135;51.078;12.108;2023-12-28T14:43:19;10.10;99.90
37242;DHT22;23135;51.078;12.108;2023-12-28T14:45:45;9.90;99.90
37242;DHT22;23135;51.078;12.108;2023-12-28T14:48:12;9.80;99.90
37242;DHT22;23135;51.078;12.108;2023-12-28T14:50:38;9.70;99.90
37242;DHT22;23135;51.078;12.108;2023-12-28T14:53:03;9.50;99.90
37242;DHT22;23135;51.078;12.108;2023-12-28T14:55:29;9.40;99.90
37242;DHT22;23135;51.078;12.108;2023-12-28T14:57:55;9.30;99.90
37242;DHT22;23135;51.078;12.108;2023-12-28T15:00:20;9.30;99.90
37242;DHT22;23135;51.078;12.108;2023-12-28T15:02:46;9.20;99.90
37242;DHT22;23135;51.078;12.108;2023-12-28T15:05:11;9.10;99.90
37242;DHT22;23135;51.078;12.108;2023-12-28T15:07:38;8.90;99.90
37242;DHT22;23135;51.078;12.108;2023-12-28T15:10:04;8.90;99.90
37242;DHT22;23135;51.078;12.108;2023-12-28T15:12:30;8.90;99.90
37242;DHT22;23135;51.078;12.108;2023-12-28T15:14:56;8.80;99.90
37242;DHT22;23135;51.078;12.108;2023-12-28T15:17:21;8.70;99.90
37242;DHT22;23135;51.078;12.108;2023-12-28T15:19:48;8.80;99.90
37242;DHT22;23135;51.078;12.108;2023-12-28T15:22:14;8.80;99.90
37242;DHT22;23135;51.078;12.108;2023-12-28T15:24:40;8.80;99.90
37242;DHT22;23135;51.078;12.108;2023-12-28T15:27:05;8.80;99.90
37242;DHT22;23135;51.078;12.108;2023-12-28T15:29:33;8.70;99.90
37242;DHT22;23135;51.078;12.108;2023-12-28T15:31:58;8.80;99.90